Tiempo atmosférico en la estación meteorológica de Barco De Avila, Ávila (1012 m.)



Fecha
DESCASC
Temp. máxima en grados centígrados (hora)
DESCASC
Temp. mínima en grados centígrados (hora)
DESCASC
Temp. media en grados centígrados
DESCASC
Racha de viento máxima en m/sg (hora)
DESCASC
Velocidad máxima media en intervalos de 10 minutos(hora)
DESCASC
Precipitaciones diarias en mm
DESCASC
Precipitaciones de 00:00 a 06:00 en mm
DESCASC
Precipitaciones de 06:00 a 12:00 en mm
DESCASC
Precipitaciones de 12:00 a 18:00 en mm
DESCASC
Precipitaciones de 18:00 a 24:00 en mm
DESCASC
22-01-2020 6.6 (15:20) 1.5 (01:00) 4 6.94 (15:30) 3.89 (15:30) 2.4 1 1.4 0 0
21-01-2020 2.9 (12:50) -1.3 (03:10) 0.8 8.33 (08:10) 4.72 (09:40) 0 0 0 0 0
20-01-2020 0.2 (20:30) -3.8 (08:40) -1.8 14.44 (03:30) 6.39 (00:30) 0 0 0 0 0
19-01-2020 5 (16:30) -0.5 (-00:0) 2.3 15.28 (13:50) 8.06 (13:40) 3.4 3.2 0.2 0 0
18-01-2020 11.5 (16:00) 3.5 (00:00) 7.5 15.83 (17:30) 9.44 (14:40) 7.8 4.4 1.6 0 1.8
17-01-2020 10.7 (15:20) 3.5 (00:00) 7.1 10.56 (07:40) 6.11 (00:10) 0 0 0 0 0
16-01-2020 11.5 (15:10) 5.9 (00:00) 8.7 16.11 (14:30) 11.11 (14:50) 1.2 0 0 0 1.2
15-01-2020 9.2 (16:30) 4.7 (00:00) 6.9 14.17 (10:00) 9.44 (09:00) 3 0.4 2.4 0.2 0
14-01-2020 8.6 (13:30) -7 (-00:0) 0.8 13.89 (13:10) 9.44 (16:30) 1.4 0 0 0 1.4
13-01-2020 10.4 (15:10) -4.7 (-00:0) 2.8 11.11 (18:50) 7.5 (18:50) 0 0 0 0 0
12-01-2020 11.2 (15:40) -5.7 (-00:0) 2.8 6.39 (13:40) 4.44 (09:50) 0 0 0 0 0
11-01-2020 10.5 (16:30) -5.9 (-00:0) 2.3 4.72 (04:40) 3.33 (09:50) 0 0 0 0 0
10-01-2020 8.4 (14:10) -2.6 (-00:0) 2.9 8.61 (15:00) 4.72 (15:10) 0 0 0 0 0
09-01-2020 14 (16:10) -2.1 (-00:0) 6 7.5 (22:40) 4.72 (22:40) 0 0 0 0 0
08-01-2020 16.3 (15:40) -3.6 (-00:0) 6.3 5.83 (05:20) 4.17 (05:20) 0 0 0 0 0
07-01-2020 16.5 (16:00) -1.9 (-00:0) 7.3 5.56 (01:30) 4.17 (04:40) 0 0 0 0 0
06-01-2020 14.8 (15:10) -3.9 (-00:0) 5.5 6.11 (15:40) 3.61 (06:20) 0 0 0 0 0
05-01-2020 11.6 (15:30) -5.9 (-00:0) 2.9 5.28 (17:10) 3.33 (17:40) 0 0 0 0 0
04-01-2020 7.9 (14:50) -4.7 (-00:0) 1.6 8.33 (13:20) 4.17 (13:20) 0 0 0 0 0
03-01-2020 7.9 (16:30) -3.4 (-00:0) 2.3 3.89 (14:30) 2.78 (23:50) 0 0 0 0 0
02-01-2020 13.7 (14:40) -3.1 (-00:0) 5.3 8.61 (16:50) 5 (16:40) 0 0 0 0 0
01-01-2020 16.3 (15:30) -2.1 (-00:0) 7.1 5 (05:40) 3.61 (22:40) 0 0 0 0 0
31-12-2019 16.3 (15:30) -1.7 (-00:0) 7.3 6.11 (13:50) 4.44 (09:10) 0 0 0 0 0
30-12-2019 -- (--) -- (--) -- -- (--) -- (--) -- 0 0 0 --
29-12-2019 18.5 (16:30) -0.4 (00:00) 9 6.94 (01:50) 4.72 (01:50) 0 0 0 0 0
28-12-2019 18.3 (15:30) -0.5 (-00:0) 8.9 7.78 (20:50) 4.44 (23:00) 0 0 0 0 0
27-12-2019 14.2 (16:20) -3.3 (-00:0) 5.4 5.83 (20:40) 4.17 (21:40) 0 0 0 0 0
26-12-2019 12.2 (16:40) 0.6 (00:00) 6.4 6.11 (13:20) 4.17 (21:20) 0 0 0 0 0
25-12-2019 17.6 (14:20) 0.6 (00:00) 9.1 9.17 (15:30) 5.83 (14:50) 0 0 0 0 0

Gráficas

Temp. máximas Temp. mínimas Temp. medias Precipitaciones Rachas de viento máximas Velocidades máximas media en intervalos de 10 minutos

Datos horarios

Fecha y hora oficial Temperatura (ºC) Velocidad del viento (km/h) Dirección del viento Racha (km/h) Dirección de racha Precipitación (mm) Presión (hPa) Tendencia (hPa) Humedad (%)
2020-01-23 23:00:00 4.9 3 Oeste 9 Sudeste 0 -- -- 86
2020-01-23 22:00:00 5.2 7 Sudeste 20 Sur 0 -- -- 83
2020-01-23 21:00:00 5.2 12 Sur 19 Sudeste 0 -- -- 82
2020-01-23 20:00:00 5 13 Sur 21 Sudeste 0.2 -- -- 86
2020-01-23 19:00:00 4.9 5 Este 12 Este 0 -- -- 86
2020-01-23 18:00:00 5.2 4 Sudeste 13 Sur 0.2 -- -- 82
2020-01-23 17:00:00 6 8 Sur 13 Sur 0 -- -- 78
2020-01-23 16:00:00 6.6 8 Sur 19 Sur 0 -- -- 74
2020-01-23 15:00:00 6.7 12 Sur 17 Sur 0 -- -- 76
2020-01-23 14:00:00 6.6 8 Sur 18 Sudeste 0 -- -- 73
2020-01-23 13:00:00 6.9 10 Sudeste 21 Este 0 -- -- 74
2020-01-23 12:00:00 7 7 Sur 14 Este 0 -- -- 75
2020-01-23 11:00:00 5.6 5 Este 11 Sur 0 -- -- 80
2020-01-23 10:00:00 4.6 9 Sur 14 Sudoeste 0 -- -- 82
2020-01-23 09:00:00 4.3 4 Sudoeste 13 Este 0 -- -- 83
2020-01-23 08:00:00 3.7 4 Sudoeste 18 Sudoeste 0.2 -- -- 89
2020-01-23 07:00:00 3.6 4 Norte 15 Sudeste 0.4 -- -- 89
2020-01-23 06:00:00 2.9 3 Noroeste 10 Oeste 0.2 -- -- 92
2020-01-23 05:00:00 2.9 8 Sudoeste 15 Sudoeste 0.2 -- -- 91
2020-01-23 04:00:00 2.5 4 Oeste 11 Oeste 0 -- -- 90
2020-01-23 03:00:00 2.1 0 Calma 8 Noroeste 0 -- -- 91
2020-01-23 02:00:00 1.9 4 Noroeste 7 Oeste 0 -- -- 92
2020-01-23 01:00:00 1.8 4 Oeste 6 Oeste 0 -- -- 90
2020-01-23 00:00:00 2.3 3 Norte 4 Norte 0 -- -- 88
2020-01-22 23:00:00 2.1 0 Calma 6 Oeste 0 -- -- 88
2020-01-22 22:00:00 2.5 4 Oeste 10 Oeste 0 -- -- 87
2020-01-22 21:00:00 2 5 Oeste 8 Sudoeste 0 -- -- 88
2020-01-22 20:00:00 2.3 3 Noroeste 6 Sudoeste 0 -- -- 87
2020-01-22 19:00:00 3.7 0 Calma 4 Sudoeste 0 -- -- 81
2020-01-22 18:00:00 5.4 4 Sudoeste 5 Sudoeste 0 -- -- 75
2020-01-22 17:00:00 6.1 3 Sur 14 Sur 0 -- -- 69
2020-01-22 16:00:00 6.4 9 Sudeste 25 Este 0 -- -- 65
2020-01-22 15:00:00 6.4 10 Nordeste 24 Sudeste 0 -- -- 69
2020-01-22 14:00:00 6 5 Noroeste 11 Norte 0 -- -- 74
2020-01-22 13:00:00 6 4 Sudeste 20 Este 0 -- -- 77
2020-01-22 12:00:00 5.6 11 Sudeste 17 Sudeste 0 -- -- 82
2020-01-22 11:00:00 4 3 Oeste 8 Oeste 0 -- -- 91
2020-01-22 10:00:00 2.3 2 Sudoeste 7 Oeste 0 -- -- 95
2020-01-22 09:00:00 1.7 3 Oeste 8 Oeste 0.2 -- -- 95
2020-01-22 08:00:00 1.9 5 Sudoeste 9 Sudoeste 0.8 -- -- 95
2020-01-22 07:00:00 2 3 Sudeste 9 Oeste 0.4 -- -- 95
2020-01-22 06:00:00 1.9 0 Calma 7 Sudeste 0.8 -- -- 94
2020-01-22 05:00:00 2 4 Nordeste 9 Este 0 -- -- 93
2020-01-22 04:00:00 1.7 2 Nordeste 6 Oeste 0 -- -- 94
2020-01-22 03:00:00 1.6 2 Oeste 8 Sudeste 0 -- -- 93
2020-01-22 02:00:00 1.5 3 Este 8 Este 0 -- -- 93
2020-01-22 01:00:00 1.5 3 Sur 9 Sudeste 0.2 -- -- 91
2020-01-22 00:00:00 1.8 3 Sudoeste 13 Nordeste 0 -- -- 89
2020-01-21 23:00:00 2.4 13 Norte 20 Norte 0 -- -- 85
2020-01-21 22:00:00 2.6 9 Norte 20 Norte 0 -- -- 85
2020-01-21 21:00:00 2.8 9 Norte 18 Norte 0 -- -- 84
2020-01-21 20:00:00 2.7 6 Norte 12 Norte 0 -- -- 86
2020-01-21 19:00:00 2.6 6 Norte 20 Norte 0 -- -- 85
2020-01-21 18:00:00 2.6 10 Norte 22 Noroeste 0 -- -- 83
2020-01-21 17:00:00 2.2 14 Norte 22 Norte 0 -- -- 82
2020-01-21 16:00:00 2.2 12 Norte 21 Norte 0 -- -- 82
2020-01-21 15:00:00 2.8 10 Norte 24 Norte 0 -- -- 75
2020-01-21 14:00:00 2.6 12 Norte 22 Norte 0 -- -- 74
2020-01-21 13:00:00 2.8 7 Nordeste 16 Norte 0 -- -- 74
2020-01-21 12:00:00 1.9 10 Norte 19 Norte 0 -- -- 76
2020-01-21 11:00:00 1.2 6 Norte 22 Norte 0 -- -- 78
2020-01-21 10:00:00 0 12 Norte 27 Norte 0 -- -- 79
2020-01-21 09:00:00 0 15 Norte 30 Norte 0 -- -- 78
2020-01-21 08:00:00 -0.7 9 Nordeste 20 Norte 0 -- -- 82
2020-01-21 07:00:00 -0.4 12 Norte 22 Noroeste 0 -- -- 77
2020-01-21 06:00:00 -0.6 12 Norte 22 Norte 0 -- -- 78
2020-01-21 05:00:00 -0.5 12 Norte 23 Norte 0 -- -- 78
2020-01-21 04:00:00 -0.9 9 Norte 24 Norte 0 -- -- 81
2020-01-21 03:00:00 -1.1 13 Norte 24 Norte 0 -- -- 83
2020-01-21 02:00:00 -0.2 11 Norte 21 Norte 0 -- -- 78
2020-01-21 01:00:00 -0.5 8 Norte 20 Norte 0 -- -- 79
2020-01-21 00:00:00 -0.8 10 Norte 22 Norte 0 -- -- 80
2020-01-20 23:00:00 -0.3 8 Norte 17 Nordeste 0 -- -- 77
2020-01-20 22:00:00 -0.3 10 Nordeste 24 Norte 0 -- -- 75
2020-01-20 21:00:00 -0.1 11 Norte 19 Norte 0 -- -- 72
2020-01-20 20:00:00 0.1 8 Nordeste 22 Nordeste 0 -- -- 69
2020-01-20 19:00:00 0 11 Nordeste 24 Norte 0 -- -- 69
2020-01-20 18:00:00 -0.3 8 Nordeste 22 Norte 0 -- -- 70
2020-01-20 17:00:00 0 13 Nordeste 23 Nordeste 0 -- -- 66
2020-01-20 16:00:00 -0.1 9 Nordeste 25 Nordeste 0 -- -- 67
2020-01-20 15:00:00 -0.3 16 Nordeste 32 Nordeste 0 -- -- 68
2020-01-20 14:00:00 -0.5 14 Nordeste 28 Nordeste 0 -- -- 64
2020-01-20 13:00:00 -0.6 13 Nordeste 27 Nordeste 0 -- -- 62
2020-01-20 12:00:00 -1.1 13 Nordeste 21 Nordeste 0 -- -- 62
2020-01-20 11:00:00 -1.9 8 Nordeste 15 Nordeste 0 -- -- 66
2020-01-20 10:00:00 -2.6 8 Nordeste 14 Norte 0 -- -- 69
2020-01-20 09:00:00 -3.8 7 Norte 14 Norte 0 -- -- 74
2020-01-20 08:00:00 -3.4 8 Norte 17 Norte 0 -- -- 72
2020-01-20 07:00:00 -3.1 10 Nordeste 19 Norte 0 -- -- 70
2020-01-20 06:00:00 -2.6 11 Nordeste 28 Nordeste 0 -- -- 68
2020-01-20 05:00:00 -2.1 15 Nordeste 32 Nordeste 0 -- -- 66
2020-01-20 04:00:00 -1.8 16 Nordeste 52 Nordeste 0 -- -- 63
2020-01-20 03:00:00 -1.2 19 Nordeste 39 Nordeste 0 -- -- 62
2020-01-20 02:00:00 -0.9 15 Nordeste 43 Este 0 -- -- 64
2020-01-20 01:00:00 -0.6 22 Nordeste 48 Nordeste 0 -- -- 64
2020-01-20 00:00:00 -0.4 18 Nordeste 46 Nordeste 0 -- -- 63
2020-01-19 23:00:00 -0.4 19 Nordeste 39 Nordeste 0 -- -- 63
2020-01-19 22:00:00 -0.3 18 Nordeste 35 Norte 0 -- -- 63
2020-01-19 21:00:00 0.3 15 Nordeste 36 Nordeste 0 -- -- 59
2020-01-19 20:00:00 1.1 8 Nordeste 31 Sudeste 0 -- -- 61
2020-01-19 19:00:00 1.8 14 Nordeste 32 Norte 0 -- -- 62
2020-01-19 18:00:00 3.4 12 Nordeste 31 Nordeste 0 -- -- 55
2020-01-19 17:00:00 4.3 19 Nordeste 40 Nordeste 0 -- -- 51
2020-01-19 16:00:00 4.4 17 Nordeste 34 Este 0 -- -- 58
2020-01-19 15:00:00 3.7 15 Nordeste 42 Nordeste 0 -- -- 61
2020-01-19 14:00:00 3.5 20 Nordeste 55 Este 0 -- -- 63
2020-01-19 13:00:00 3.2 15 Nordeste 41 Nordeste 0 -- -- 75
2020-01-19 12:00:00 3.1 18 Nordeste 44 Nordeste 0 -- -- 72
2020-01-19 11:00:00 2.7 10 Nordeste 40 Norte 0 -- -- 87
2020-01-19 10:00:00 2.7 14 Norte 28 Nordeste 0.2 -- -- 89
2020-01-19 09:00:00 2.3 9 Norte 24 Norte 0 -- -- 92
2020-01-19 08:00:00 2.6 6 Norte 18 Nordeste 0 -- -- 91
2020-01-19 07:00:00 3 6 Norte 17 Nordeste 0 -- -- 90
2020-01-19 06:00:00 3.3 6 Norte 23 Norte 0 -- -- 91
2020-01-19 05:00:00 3.5 13 Norte 25 Norte 0 -- -- 91
2020-01-19 04:00:00 3.9 14 Noroeste 30 Noroeste 0 -- -- 91
2020-01-19 03:00:00 3.9 14 Noroeste 27 Noroeste 1.2 -- -- 91
2020-01-19 02:00:00 3.7 5 Norte 20 Norte 1.6 -- -- 91
2020-01-19 01:00:00 4.3 12 Norte 22 Norte 0.4 -- -- 85
2020-01-19 00:00:00 4.5 11 Norte 31 Norte 0 -- -- 82
2020-01-18 23:00:00 4.4 16 Norte 33 Noroeste 1.4 -- -- 84
2020-01-18 22:00:00 7 19 Noroeste 46 Oeste 0.2 -- -- 75
2020-01-18 21:00:00 7.2 9 Oeste 36 Oeste 0.2 -- -- 73
2020-01-18 20:00:00 8.2 3 Nordeste 33 Noroeste 0 -- -- 71
2020-01-18 19:00:00 7.9 14 Sudoeste 44 Sudoeste 0 -- -- 82
2020-01-18 18:00:00 8.8 22 Sudoeste 57 Sudoeste 0 -- -- 76
2020-01-18 17:00:00 10.1 15 Oeste 34 Sudoeste 0 -- -- 77
2020-01-18 16:00:00 11.5 13 Sudoeste 33 Sudoeste 0 -- -- 73
2020-01-18 15:00:00 10.5 23 Oeste 50 Sudoeste 0 -- -- 76
2020-01-18 14:00:00 10 29 Sudoeste 50 Sudoeste 0 -- -- 77
2020-01-18 13:00:00 9.3 31 Sudoeste 49 Sudoeste 0 -- -- 78
2020-01-18 12:00:00 8.7 27 Sudoeste 44 Sudoeste 0 -- -- 82
2020-01-18 11:00:00 7.2 27 Sudoeste 40 Sudoeste 0 -- -- 86
2020-01-18 10:00:00 6.7 25 Sudoeste 39 Sudoeste 0 -- -- 86
2020-01-18 09:00:00 6 20 Sudoeste 35 Sudoeste 0 -- -- 87
2020-01-18 08:00:00 4 11 Sudoeste 21 Sudoeste 0.2 -- -- 91
2020-01-18 07:00:00 3.5 12 Sur 26 Sudeste 1.4 -- -- 89
2020-01-18 06:00:00 3.6 6 Nordeste 14 Norte 2.8 -- -- 92
2020-01-18 05:00:00 4.7 3 Norte 23 Sudoeste 1.6 -- -- 85
2020-01-18 04:00:00 5.9 14 Oeste 29 Sudoeste 0 -- -- 78
2020-01-18 03:00:00 6 15 Sudoeste 37 Sudoeste 0 -- -- 75
2020-01-18 02:00:00 6.1 22 Sudoeste 38 Sudoeste 0 -- -- 80
2020-01-18 01:00:00 5 5 Sudoeste 17 Sur 0 -- -- 74
2020-01-18 00:00:00 5.3 13 Oeste 27 Oeste 0 -- -- 84
2020-01-17 23:00:00 3.9 8 Sudoeste 27 Sudoeste 0 -- -- 85
2020-01-17 22:00:00 3.5 7 Sur 10 Sudoeste 0 -- -- 80
2020-01-17 21:00:00 3.8 6 Oeste 12 Sudoeste 0 -- -- 78
2020-01-17 20:00:00 5.1 4 Oeste 13 Oeste 0 -- -- 78
2020-01-17 19:00:00 6.5 0 Calma 10 Norte 0 -- -- 67
2020-01-17 18:00:00 8.9 4 Nordeste 21 Norte 0 -- -- 59
2020-01-17 17:00:00 10.1 9 Norte 21 Nordeste 0 -- -- 51
2020-01-17 16:00:00 10.6 9 Norte 22 Norte 0 -- -- 48
2020-01-17 15:00:00 10.3 8 Nordeste 18 Norte 0 -- -- 61
2020-01-17 14:00:00 9.8 8 Norte 20 Nordeste 0 -- -- 69
2020-01-17 13:00:00 8.5 10 Norte 22 Norte 0 -- -- 79
2020-01-17 12:00:00 8.7 11 Noroeste 22 Noroeste 0 -- -- 71
2020-01-17 11:00:00 9.2 5 Noroeste 18 Noroeste 0 -- -- 70
2020-01-17 10:00:00 7 9 Noroeste 24 Sudoeste 0 -- -- 77
2020-01-17 09:00:00 6.9 13 Sudoeste 32 Sudoeste 0 -- -- 75
2020-01-17 08:00:00 6.7 17 Sur 38 Sudoeste 0 -- -- 75
2020-01-17 07:00:00 6.5 16 Sudoeste 30 Sudoeste 0 -- -- 74
2020-01-17 06:00:00 6 11 Sudoeste 26 Oeste 0 -- -- 77
2020-01-17 05:00:00 5.7 9 Sudoeste 24 Sudoeste 0 -- -- 76
2020-01-17 04:00:00 5.5 8 Sudoeste 19 Sudoeste 0 -- -- 74
2020-01-17 03:00:00 5.7 4 Oeste 21 Sudoeste 0 -- -- 76
2020-01-17 02:00:00 6.1 13 Oeste 32 Sudoeste 0 -- -- 79
2020-01-17 01:00:00 6.3 15 Oeste 35 Sudoeste 0 -- -- 81
2020-01-17 00:00:00 6.5 21 Sur 41 Sudoeste 0 -- -- 83
2020-01-16 23:00:00 6.4 22 Sur 45 Sur 0.4 -- -- 82
2020-01-16 22:00:00 6.1 19 Sur 51 Sur 0.8 -- -- 80
2020-01-16 21:00:00 7.8 26 Sudoeste 50 Sur 0 -- -- 65
2020-01-16 20:00:00 8.4 32 Sur 53 Sur 0 -- -- 59
2020-01-16 19:00:00 8.3 26 Sudoeste 55 Sudoeste 0 -- -- 58
2020-01-16 18:00:00 8.9 31 Sur 53 Sur 0 -- -- 58
2020-01-16 17:00:00 10.6 34 Sur 54 Sur 0 -- -- 46
2020-01-16 16:00:00 10 27 Sudoeste 55 Sudoeste 0 -- -- 51
2020-01-16 15:00:00 11.1 33 Sudoeste 58 Sudoeste 0 -- -- 56
2020-01-16 14:00:00 9.8 30 Sudoeste 46 Oeste 0 -- -- 62
2020-01-16 13:00:00 9 27 Sudoeste 45 Sudoeste 0 -- -- 66
2020-01-16 12:00:00 9.3 18 Sudoeste 36 Sudoeste 0 -- -- 67
2020-01-16 11:00:00 8.6 20 Sudoeste 43 Sudoeste 0 -- -- 75
2020-01-16 10:00:00 7.6 22 Sudoeste 36 Sudoeste 0 -- -- 83
2020-01-16 09:00:00 7.8 19 Sudoeste 28 Sudoeste 0 -- -- 84
2020-01-16 08:00:00 7.9 15 Sudoeste 34 Sudoeste 0 -- -- 86
2020-01-16 07:00:00 8 19 Sudoeste 37 Sudoeste 0 -- -- 85
2020-01-16 06:00:00 7.9 21 Sudoeste 30 Sudoeste 0 -- -- 88
2020-01-16 05:00:00 8.3 17 Sudoeste 31 Sudoeste 0 -- -- 85
2020-01-16 04:00:00 7.5 8 Sudoeste 27 Sudoeste 0 -- -- 87
2020-01-16 03:00:00 7.7 18 Sudoeste 26 Sudoeste 0 -- -- 89
2020-01-16 02:00:00 7.7 13 Sudoeste 28 Sudoeste 0 -- -- 87
2020-01-16 01:00:00 7.6 6 Sudoeste 24 Oeste 0 -- -- 89
2020-01-16 00:00:00 7.9 5 Sudoeste 19 Sudoeste 0 -- -- 89
2020-01-15 23:00:00 7.8 7 Sudoeste 19 Oeste 0 -- -- 90
2020-01-15 22:00:00 7.8 6 Sudoeste 18 Oeste 0 -- -- 89
2020-01-15 21:00:00 7.8 8 Sudoeste 18 Oeste 0 -- -- 86
2020-01-15 20:00:00 7.6 7 Oeste 25 Oeste 0 -- -- 89
2020-01-15 19:00:00 7.5 17 Oeste 33 Oeste 0 -- -- 90
2020-01-15 18:00:00 7.7 21 Oeste 33 Oeste 0 -- -- 87
2020-01-15 17:00:00 7.7 13 Sudoeste 31 Sudoeste 0 -- -- 86
2020-01-15 16:00:00 8.8 19 Sudoeste 40 Sudoeste 0 -- -- 82
2020-01-15 15:00:00 9 15 Sudoeste 37 Sudoeste 0 -- -- 83
2020-01-15 14:00:00 8.2 21 Oeste 38 Sudoeste 0 -- -- 87
2020-01-15 13:00:00 6.8 24 Sudoeste 44 Sudoeste 0.2 -- -- 88
2020-01-15 12:00:00 6.6 31 Sudoeste 46 Sudoeste 0.4 -- -- 88
2020-01-15 11:00:00 5.8 29 Sudoeste 46 Sudoeste 0.4 -- -- 90
2020-01-15 10:00:00 5.4 34 Sudoeste 51 Sudoeste 0.8 -- -- 89
2020-01-15 09:00:00 4.8 34 Sudoeste 50 Sudoeste 0.4 -- -- 88
2020-01-15 08:00:00 5.4 28 Sudoeste 44 Sudoeste 0.2 -- -- 85
2020-01-15 07:00:00 5.5 21 Sudoeste 42 Oeste 0.2 -- -- 85
2020-01-15 06:00:00 5.6 20 Sudoeste 42 Oeste 0 -- -- 81
2020-01-15 05:00:00 5.1 23 Sudoeste 43 Sudoeste 0 -- -- 87
2020-01-15 04:00:00 5.3 33 Sudoeste 46 Sudoeste 0 -- -- 85
2020-01-15 03:00:00 5.3 20 Oeste 32 Sudoeste 0 -- -- 86
2020-01-15 02:00:00 5.4 17 Sudoeste 33 Sudoeste 0 -- -- 83
2020-01-15 01:00:00 5.6 23 Sudoeste 38 Sudoeste 0.4 -- -- 78
2020-01-15 00:00:00 5.3 19 Oeste 32 Oeste 0.2 -- -- 90
2020-01-14 23:00:00 5.1 17 Oeste 32 Sudoeste 1.2 -- -- 92
2020-01-14 22:00:00 4.8 20 Oeste 36 Sudoeste 0 -- -- 91
2020-01-14 21:00:00 4.9 24 Sudoeste 41 Sudoeste 0 -- -- 88
2020-01-14 20:00:00 5.1 22 Sudoeste 36 Oeste 0 -- -- 86
2020-01-14 19:00:00 5.1 14 Oeste 42 Oeste 0 -- -- 82
2020-01-14 18:00:00 6.1 21 Sudoeste 41 Sudoeste 0 -- -- 77
2020-01-14 17:00:00 7 28 Sudoeste 46 Sudoeste 0 -- -- 72
2020-01-14 16:00:00 8.1 21 Sudoeste 44 Oeste 0 -- -- 67
2020-01-14 15:00:00 7.5 26 Oeste 45 Sudoeste 0 -- -- 72
2020-01-14 14:00:00 8.3 28 Oeste 50 Sudoeste 0 -- -- 65
2020-01-14 13:00:00 7.9 30 Oeste 47 Sudoeste 0 -- -- 63
2020-01-14 12:00:00 4.7 6 Nordeste 18 Nordeste 0 -- -- 66
2020-01-14 11:00:00 0.4 2 Sur 10 Oeste 0 -- -- 67
2020-01-14 10:00:00 -3.7 4 Oeste 10 Oeste 0 -- -- 79
2020-01-14 09:00:00 -6.5 4 Sudoeste 9 Oeste 0 -- -- 85
2020-01-14 08:00:00 -6.9 3 Oeste 6 Oeste 0 -- -- 87
2020-01-14 07:00:00 -6.2 2 Oeste 6 Sudoeste 0 -- -- 84
2020-01-14 06:00:00 -5.8 2 Oeste 5 Nordeste 0 -- -- 84
2020-01-14 05:00:00 -4.6 3 Nordeste 9 Oeste 0 -- -- 79
2020-01-14 04:00:00 -4.1 5 Sudoeste 11 Oeste 0 -- -- 78
2020-01-14 03:00:00 -4.2 5 Sur 8 Sur 0 -- -- 79
2020-01-14 02:00:00 -3.6 3 Sudoeste 7 Sudoeste 0 -- -- 78
2020-01-14 01:00:00 -2.5 2 Oeste 14 Sudoeste 0 -- -- 75
2020-01-14 00:00:00 -1.8 5 Sudoeste 9 Sudoeste 0 -- -- 75
2020-01-13 23:00:00 0.7 5 Nordeste 23 Norte 0 -- -- 79
2020-01-13 22:00:00 0 4 Sur 40 Sudoeste 0 -- -- 71
2020-01-13 21:00:00 3.6 24 Sudoeste 40 Sudoeste 0 -- -- 61
2020-01-13 20:00:00 3.4 25 Oeste 40 Oeste 0 -- -- 62
2020-01-13 19:00:00 4.5 25 Oeste 40 Oeste 0 -- -- 60
2020-01-13 18:00:00 6.5 17 Oeste 32 Oeste 0 -- -- 47
2020-01-13 17:00:00 7.8 19 Oeste 37 Sudoeste 0 -- -- 43
2020-01-13 16:00:00 8.8 19 Oeste 31 Oeste 0 -- -- 39
2020-01-13 15:00:00 9.8 10 Oeste 19 Norte 0 -- -- 36
2020-01-13 14:00:00 7.4 13 Norte 32 Noroeste 0 -- -- 53
2020-01-13 13:00:00 6.6 8 Nordeste 15 Nordeste 0 -- -- 51
2020-01-13 12:00:00 3.5 8 Nordeste 17 Norte 0 -- -- 59
2020-01-13 11:00:00 0.4 7 Nordeste 14 Norte 0 -- -- 58
2020-01-13 10:00:00 -2.8 3 Sudeste 10 Oeste 0 -- -- 69
2020-01-13 09:00:00 -2.7 10 Sudoeste 21 Sudoeste 0 -- -- 57
2020-01-13 08:00:00 -2.3 15 Sudoeste 21 Sudoeste 0 -- -- 56
2020-01-13 07:00:00 -3.3 11 Sudoeste 17 Sudoeste 0 -- -- 62
2020-01-13 06:00:00 -3.6 4 Oeste 16 Sudoeste 0 -- -- 67
2020-01-13 05:00:00 -4.1 9 Oeste 14 Oeste 0 -- -- 72
2020-01-13 04:00:00 -4.2 5 Oeste 12 Sudoeste 0 -- -- 75
2020-01-13 03:00:00 -3.8 4 Sudoeste 9 Sudoeste 0 -- -- 75
2020-01-13 02:00:00 -2.7 8 Sudoeste 13 Sudoeste 0 -- -- 72
2020-01-13 01:00:00 -2 4 Sudoeste 16 Sudoeste 0 -- -- 71
2020-01-13 00:00:00 -1.6 8 Sudoeste 17 Sudoeste 0 -- -- 72
2020-01-12 23:00:00 -1.1 12 Sudoeste 17 Sudoeste 0 -- -- 69
2020-01-12 22:00:00 -1.1 8 Oeste 11 Oeste 0 -- -- 72
2020-01-12 21:00:00 -0.2 7 Sudoeste 10 Oeste 0 -- -- 69
2020-01-12 20:00:00 1.7 4 Oeste 8 Nordeste 0 -- -- 65
2020-01-12 19:00:00 4.7 5 Este 13 Norte 0 -- -- 64
2020-01-12 18:00:00 8.1 8 Norte 19 Norte 0 -- -- 48
2020-01-12 17:00:00 10.2 13 Norte 19 Norte 0 -- -- 42
2020-01-12 16:00:00 11 9 Norte 18 Norte 0 -- -- 34
2020-01-12 15:00:00 10.7 9 Norte 19 Norte 0 -- -- 33
2020-01-12 14:00:00 10.1 9 Norte 23 Norte 0 -- -- 34
2020-01-12 13:00:00 8.4 5 Nordeste 14 Nordeste 0 -- -- 36
2020-01-12 12:00:00 5.8 4 Este 8 Sudoeste 0 -- -- 41
2020-01-12 11:00:00 1.5 7 Sudoeste 22 Sudoeste 0 -- -- 51
2020-01-12 10:00:00 -2.4 14 Sudoeste 22 Sudoeste 0 -- -- 61
2020-01-12 09:00:00 -5 12 Sudoeste 21 Sudoeste 0 -- -- 71
2020-01-12 08:00:00 -5.6 10 Sudoeste 17 Sudoeste 0 -- -- 77
2020-01-12 07:00:00 -5.1 12 Sudoeste 17 Sudoeste 0 -- -- 73
2020-01-12 06:00:00 -5.4 7 Sudoeste 13 Sudoeste 0 -- -- 79
2020-01-12 05:00:00 -4.7 12 Sudoeste 16 Sudoeste 0 -- -- 77
2020-01-12 04:00:00 -4.5 10 Sudoeste 15 Sudoeste 0 -- -- 79
2020-01-12 03:00:00 -4.9 5 Sudoeste 9 Sudoeste 0 -- -- 80
2020-01-12 02:00:00 -3.9 7 Sudoeste 16 Sudoeste 0 -- -- 77
2020-01-12 01:00:00 -3.3 9 Sudoeste 14 Sudoeste 0 -- -- 78
2020-01-12 00:00:00 -2.9 10 Sudoeste 13 Sudoeste 0 -- -- 79
2020-01-11 23:00:00 -2.3 6 Sudoeste 15 Sudoeste 0 -- -- 78
2020-01-11 22:00:00 -1.5 10 Sudoeste 14 Sudoeste 0 -- -- 75
2020-01-11 21:00:00 -0.6 9 Sudoeste 12 Sudoeste 0 -- -- 73
2020-01-11 20:00:00 1.2 4 Oeste 8 Oeste 0 -- -- 67
2020-01-11 19:00:00 4.9 3 Oeste 13 Norte 0 -- -- 59
2020-01-11 18:00:00 7.8 6 Norte 13 Norte 0 -- -- 51
2020-01-11 17:00:00 10.2 7 Norte 15 Nordeste 0 -- -- 38
2020-01-11 16:00:00 10.3 5 Norte 17 Norte 0 -- -- 34
2020-01-11 15:00:00 9.6 8 Norte 15 Nordeste 0 -- -- 33
2020-01-11 14:00:00 8.2 8 Norte 14 Nordeste 0 -- -- 39
2020-01-11 13:00:00 6.6 5 Nordeste 9 Nordeste 0 -- -- 46
2020-01-11 12:00:00 4.2 3 Sudeste 5 Sur 0 -- -- 61
2020-01-11 11:00:00 0.5 0 Calma 14 Sudoeste 0 -- -- 73
2020-01-11 10:00:00 -3.1 11 Sudoeste 17 Sudoeste 0 -- -- 84
2020-01-11 09:00:00 -5.5 8 Sudoeste 14 Sudoeste 0 -- -- 88
2020-01-11 08:00:00 -5.7 4 Sudoeste 12 Sudoeste 0 -- -- 89
2020-01-11 07:00:00 -4.6 8 Sudoeste 14 Oeste 0 -- -- 89
2020-01-11 06:00:00 -4.6 5 Sudoeste 10 Sudoeste 0 -- -- 88
2020-01-11 05:00:00 -3.3 9 Sudoeste 17 Sudoeste 0 -- -- 86
2020-01-11 04:00:00 -4 6 Oeste 12 Sudoeste 0 -- -- 88
2020-01-11 03:00:00 -3.6 6 Sudoeste 11 Sudoeste 0 -- -- 87
2020-01-11 02:00:00 -3.2 6 Sudoeste 13 Oeste 0 -- -- 86
2020-01-11 01:00:00 -2.6 8 Oeste 12 Sudoeste 0 -- -- 86
2020-01-11 00:00:00 -2.6 5 Oeste 9 Sudoeste 0 -- -- 84
2020-01-10 23:00:00 -1.9 4 Sudoeste 9 Sudoeste 0 -- -- 82
2020-01-10 22:00:00 -1 4 Oeste 10 Sudoeste 0 -- -- 80
2020-01-10 21:00:00 -0.6 5 Sudoeste 8 Sudoeste 0 -- -- 78
2020-01-10 20:00:00 1.8 0 Calma 14 Nordeste 0 -- -- 69
2020-01-10 19:00:00 3.2 6 Este 17 Nordeste 0 -- -- 67
2020-01-10 18:00:00 5.6 14 Nordeste 27 Norte 0 -- -- 57
2020-01-10 17:00:00 7.1 14 Nordeste 28 Nordeste 0 -- -- 51
2020-01-10 16:00:00 7.7 14 Nordeste 31 Nordeste 0 -- -- 50
2020-01-10 15:00:00 7.7 14 Nordeste 31 Norte 0 -- -- 45
2020-01-10 14:00:00 7.9 13 Nordeste 24 Este 0 -- -- 49
2020-01-10 13:00:00 7.6 6 Sudeste 13 Nordeste 0 -- -- 54
2020-01-10 12:00:00 5.5 4 Este 8 Este 0 -- -- 64
2020-01-10 11:00:00 2.2 4 Sudoeste 7 Oeste 0 -- -- 80
2020-01-10 10:00:00 -0.6 3 Sur 6 Oeste 0 -- -- 90
2020-01-10 09:00:00 -2.3 0 Calma 5 Sudoeste 0 -- -- 90
2020-01-10 08:00:00 -1 0 Calma 9 Sur 0 -- -- 91
2020-01-10 07:00:00 -0.5 6 Sur 10 Sur 0 -- -- 91
2020-01-10 06:00:00 1.1 3 Sudeste 12 Norte 0 -- -- 86
2020-01-10 05:00:00 1.5 6 Nordeste 13 Nordeste 0 -- -- 86
2020-01-10 04:00:00 2.1 5 Norte 12 Norte 0 -- -- 82
2020-01-10 03:00:00 3.3 5 Nordeste 14 Norte 0 -- -- 79
2020-01-10 02:00:00 4.6 5 Norte 13 Norte 0 -- -- 84
2020-01-10 01:00:00 5.4 8 Norte 15 Norte 0 -- -- 82
2020-01-10 00:00:00 5.6 8 Norte 20 Nordeste 0 -- -- 81
2020-01-09 23:00:00 6.3 6 Norte 27 Norte 0 -- -- 80
2020-01-09 22:00:00 6.9 6 Norte 21 Norte 0 -- -- 87
2020-01-09 21:00:00 9.1 6 Norte 15 Norte 0 -- -- 76
2020-01-09 20:00:00 10.3 3 Nordeste 19 Norte 0 -- -- 66
2020-01-09 19:00:00 10.6 13 Norte 27 Noroeste 0 -- -- 70
2020-01-09 18:00:00 11.5 10 Norte 17 Noroeste 0 -- -- 66
2020-01-09 17:00:00 13.6 5 Nordeste 14 Este 0 -- -- 58
2020-01-09 16:00:00 13.7 5 Nordeste 13 Norte 0 -- -- 58
2020-01-09 15:00:00 13.7 5 Este 17 Este 0 -- -- 57
2020-01-09 14:00:00 12.9 8 Este 15 Sudeste 0 -- -- 60
2020-01-09 13:00:00 12.1 8 Este 17 Este 0 -- -- 66
2020-01-09 12:00:00 8.8 3 Sudoeste 12 Este 0 -- -- 59
2020-01-09 11:00:00 4.8 6 Este 9 Este 0 -- -- 66
2020-01-09 10:00:00 0.2 8 Oeste 10 Oeste 0 -- -- 77
2020-01-09 09:00:00 -2.1 4 Oeste 9 Sudoeste 0 -- -- 82
2020-01-09 08:00:00 -1.2 6 Sudoeste 17 Sudoeste 0 -- -- 75
2020-01-09 07:00:00 -0.9 11 Oeste 15 Oeste 0 -- -- 76
2020-01-09 06:00:00 -0.8 0 Calma 10 Sudoeste 0 -- -- 77
2020-01-09 05:00:00 -0.1 7 Sudoeste 16 Sudoeste 0 -- -- 72
2020-01-09 04:00:00 -0.4 7 Sudoeste 15 Oeste 0 -- -- 73
2020-01-09 03:00:00 0.3 5 Oeste 16 Sudoeste 0 -- -- 70
2020-01-09 02:00:00 -0.1 4 Sudoeste 10 Sudoeste 0 -- -- 73
2020-01-09 01:00:00 0.9 5 Sudoeste 11 Sudoeste 0 -- -- 71
2020-01-09 00:00:00 1.2 5 Oeste 15 Oeste 0 -- -- 69
2020-01-08 23:00:00 2 9 Sudoeste 14 Sudoeste 0 -- -- 68
2020-01-08 22:00:00 3.1 8 Sudoeste 13 Sudoeste 0 -- -- 62
2020-01-08 21:00:00 3.6 6 Oeste 10 Oeste 0 -- -- 62
2020-01-08 20:00:00 5.4 4 Sudoeste 8 Sudoeste 0 -- -- 57
2020-01-08 19:00:00 8.6 4 Este 17 Norte 0 -- -- 58
2020-01-08 18:00:00 12.7 7 Norte 14 Norte 0 -- -- 44
2020-01-08 17:00:00 15.7 8 Norte 15 Norte 0 -- -- 24
2020-01-08 16:00:00 16.2 10 Norte 20 Norte 0 -- -- 23
2020-01-08 15:00:00 15.9 7 Norte 14 Norte 0 -- -- 18
2020-01-08 14:00:00 14.3 5 Norte 10 Norte 0 -- -- 30
2020-01-08 13:00:00 12.2 4 Nordeste 9 Sudoeste 0 -- -- 35
2020-01-08 12:00:00 9 4 Sudeste 12 Sudoeste 0 -- -- 36
2020-01-08 11:00:00 3.4 6 Sudoeste 13 Sudoeste 0 -- -- 55
2020-01-08 10:00:00 -1.6 6 Sudoeste 10 Sudoeste 0 -- -- 69
2020-01-08 09:00:00 -2.9 4 Sudoeste 12 Sudoeste 0 -- -- 71
2020-01-08 08:00:00 -3.1 7 Sudoeste 10 Sudoeste 0 -- -- 74
2020-01-08 07:00:00 -2.4 5 Sudoeste 15 Sudoeste 0 -- -- 70
2020-01-08 06:00:00 -1.5 12 Sudoeste 21 Sudoeste 0 -- -- 68
2020-01-08 05:00:00 -0.8 13 Sudoeste 18 Sudoeste 0 -- -- 62
2020-01-08 04:00:00 -2 6 Sudoeste 14 Sudoeste 0 -- -- 69
2020-01-08 03:00:00 -2.3 8 Sudoeste 10 Sudoeste 0 -- -- 71
2020-01-08 02:00:00 -2.6 3 Sur 6 Sudoeste 0 -- -- 74
2020-01-08 01:00:00 -1.2 4 Sudoeste 20 Sudoeste 0 -- -- 68
2020-01-08 00:00:00 -0.2 13 Sudoeste 17 Sudoeste 0 -- -- 65
2020-01-07 23:00:00 0.1 10 Sudoeste 14 Sudoeste 0 -- -- 65
2020-01-07 22:00:00 1 10 Oeste 13 Sudoeste 0 -- -- 64
2020-01-07 21:00:00 2.4 5 Sudoeste 10 Sudoeste 0 -- -- 62
2020-01-07 20:00:00 4.1 3 Sudoeste 10 Sudoeste 0 -- -- 57
2020-01-07 19:00:00 7.3 3 Sudoeste 12 Norte 0 -- -- 51
2020-01-07 18:00:00 12.4 6 Norte 15 Norte 0 -- -- 38
2020-01-07 17:00:00 15.6 5 Norte 13 Norte 0 -- -- 33
2020-01-07 16:00:00 16.5 4 Norte 10 Norte 0 -- -- 26
2020-01-07 15:00:00 15.7 8 Norte 18 Norte 0 -- -- 29
2020-01-07 14:00:00 14.7 8 Norte 15 Norte 0 -- -- 38
2020-01-07 13:00:00 12.8 3 Este 7 Sudeste 0 -- -- 41
2020-01-07 12:00:00 9.8 4 Sudeste 10 Sudoeste 0 -- -- 49
2020-01-07 11:00:00 5.5 8 Sudoeste 15 Sudoeste 0 -- -- 54
2020-01-07 10:00:00 0.7 9 Sudoeste 17 Sudoeste 0 -- -- 67
2020-01-07 09:00:00 -1.8 6 Sudoeste 15 Sudoeste 0 -- -- 75
2020-01-07 08:00:00 -1 11 Sudoeste 18 Sudoeste 0 -- -- 71
2020-01-07 07:00:00 -1.1 10 Sudoeste 15 Sudoeste 0 -- -- 73
2020-01-07 06:00:00 -1.6 11 Sudoeste 18 Sudoeste 0 -- -- 76
2020-01-07 05:00:00 -0.5 4 Sudeste 20 Sudoeste 0 -- -- 70
2020-01-07 04:00:00 -1.1 9 Oeste 15 Sudoeste 0 -- -- 74
2020-01-07 03:00:00 -1.5 5 Sudoeste 18 Sudoeste 0 -- -- 76
2020-01-07 02:00:00 -0.8 11 Sudoeste 20 Sudoeste 0 -- -- 74
2020-01-07 01:00:00 -0.8 13 Sudoeste 19 Sudoeste 0 -- -- 74
2020-01-07 00:00:00 -1 6 Sudoeste 14 Sudoeste 0 -- -- 74
2020-01-06 23:00:00 0.4 10 Sudoeste 15 Sudoeste 0 -- -- 70
2020-01-06 22:00:00 0.7 7 Sudoeste 14 Sudoeste 0 -- -- 69
2020-01-06 21:00:00 2 8 Sudoeste 12 Oeste 0 -- -- 65
2020-01-06 20:00:00 3.4 0 Calma 10 Este 0 -- -- 61
2020-01-06 19:00:00 6.6 0 Calma 9 Norte 0 -- -- 49
2020-01-06 18:00:00 11.8 3 Nordeste 6 Nordeste 0 -- -- 32
2020-01-06 17:00:00 13.5 4 Nordeste 17 Nordeste 0 -- -- 30
2020-01-06 16:00:00 13.9 8 Nordeste 22 Norte 0 -- -- 28
2020-01-06 15:00:00 14.7 3 Este 6 Este 0 -- -- 29
2020-01-06 14:00:00 13 3 Norte 5 Noroeste 0 -- -- 27
2020-01-06 13:00:00 10.8 0 Calma 7 Nordeste 0 -- -- 35
2020-01-06 12:00:00 7.4 4 Nordeste 10 Nordeste 0 -- -- 48
2020-01-06 11:00:00 3.7 5 Sudoeste 12 Sudoeste 0 -- -- 59
2020-01-06 10:00:00 -0.3 6 Sudoeste 13 Oeste 0 -- -- 70